»·PEaware :: N3268C KBUR-KLAS

N3268C :: KBUR-KLAS

FLIGHT INFORMATION

Flight Status: Arrived
Operator: Privately registered:
United States
More flights under this callsign
Pilot: Jonathan B. (16142)
Aircraft: CESSNA 182 SKYLANE
(C182)
More flights by this aircraft type
Origin: KBUR Bob Hope-Burbank
United States
Destination: KLAS McCarran Intl
United States
More flights between these airports :: More routes between these airports
Route: +VNY3 DAG CRESO4
File this flight plan on PilotEdge
Remarks: i-5 Rating
Altitude:
(Current/Filed)
9,000ft
Speed:
(Current/Filed)
130kts
Departed: 08-Oct-18 08:57 PM
Arrived: 08-Oct-18 10:40 PM
Distance/Time
Traveled:
193nm/1:43
Distance/Time
To Go:
Arrived

Flight Plot

Page will automatically refresh every two minutes.

Flight plan parsing failed; only flown route is shown


Map Options




Map Legend


Flown Route
Filed Route
Departure Airport
Arrival Airport
Navaid (VOR, NDB)
Fix

Horizontal Profiles

Position Reports

Time Latitude Longitude Heading Altitude Ground
Speed
08-Oct-18 20:30 34.199698 -118.360127 180 724ft 0kts
08-Oct-18 20:31 34.199697 -118.360127 180 724ft 0kts
08-Oct-18 20:32 34.199696 -118.360127 180 724ft 0kts
08-Oct-18 20:33 34.199693 -118.360127 180 724ft 0kts
08-Oct-18 20:34 34.199691 -118.360127 180 724ft 0kts
08-Oct-18 20:35 34.199689 -118.360127 180 724ft 0kts
08-Oct-18 20:36 34.199687 -118.360127 180 724ft 0kts
08-Oct-18 20:37 34.199684 -118.360127 180 724ft 0kts
08-Oct-18 20:38 34.199682 -118.360127 180 724ft 0kts
08-Oct-18 20:39 34.199680 -118.360127 180 724ft 0kts
08-Oct-18 20:40 34.199678 -118.360127 180 724ft 0kts
08-Oct-18 20:41 34.199676 -118.360127 180 724ft 0kts
08-Oct-18 20:42 34.199673 -118.360128 180 724ft 0kts
08-Oct-18 20:43 34.199671 -118.360128 180 724ft 0kts
08-Oct-18 20:44 34.199669 -118.360128 180 724ft 0kts
08-Oct-18 20:45 34.199667 -118.360128 180 724ft 0kts
08-Oct-18 20:46 34.199665 -118.360128 180 724ft 0kts
08-Oct-18 20:47 34.199663 -118.360128 180 724ft 0kts
08-Oct-18 20:48 34.199660 -118.360128 180 724ft 0kts
08-Oct-18 20:49 34.199658 -118.360128 180 724ft 0kts
08-Oct-18 20:50 34.199656 -118.360128 180 724ft 0kts
08-Oct-18 20:51 34.199957 -118.359691 30 724ft 14kts
08-Oct-18 20:52 34.203205 -118.359153 345 724ft 21kts
08-Oct-18 20:53 34.209292 -118.360843 346 724ft 12kts
08-Oct-18 20:54 34.211760 -118.361458 41 724ft 0kts
08-Oct-18 20:55 34.211767 -118.361451 41 724ft 0kts
08-Oct-18 20:56 34.211771 -118.361447 41 724ft 0kts
08-Oct-18 20:57 34.211773 -118.361444 41 724ft 0kts
08-Oct-18 20:58 34.211646 -118.360296 166 724ft 14kts
08-Oct-18 20:59 34.194155 -118.358392 220 1515ft 73kts
08-Oct-18 21:00 34.178364 -118.378782 226 2327ft 83kts
08-Oct-18 21:01 34.162868 -118.401079 252 3046ft 97kts
08-Oct-18 21:02 34.183099 -118.415626 352 3797ft 105kts
08-Oct-18 21:03 34.211494 -118.419845 354 4452ft 108kts
08-Oct-18 21:04 34.239992 -118.425196 348 5140ft 101kts
08-Oct-18 21:05 34.266981 -118.428055 30 5831ft 93kts
08-Oct-18 21:06 34.290055 -118.408129 47 6304ft 102kts
08-Oct-18 21:07 34.314423 -118.381344 41 6472ft 119kts
08-Oct-18 21:08 34.339773 -118.355871 40 6904ft 122kts
08-Oct-18 21:09 34.366454 -118.329237 40 7410ft 125kts
08-Oct-18 21:10 34.392774 -118.302961 40 8006ft 116kts
08-Oct-18 21:11 34.416197 -118.279565 38 8762ft 102kts
08-Oct-18 21:12 34.437246 -118.259048 37 9521ft 92kts
08-Oct-18 21:13 34.459411 -118.236424 39 9940ft 112kts
08-Oct-18 21:14 34.484192 -118.211696 38 10363ft 118kts
08-Oct-18 21:15 34.509739 -118.186503 32 10778ft 115kts
08-Oct-18 21:16 34.534128 -118.162429 31 11104ft 115kts
08-Oct-18 21:17 34.561004 -118.136878 31 11181ft 126kts
08-Oct-18 21:18 34.589128 -118.110937 30 11142ft 132kts
08-Oct-18 21:19 34.618329 -118.083049 35 10825ft 145kts
08-Oct-18 21:20 34.633862 -118.041878 79 11036ft 144kts
08-Oct-18 21:21 34.637193 -117.993021 76 11042ft 145kts
08-Oct-18 21:22 34.639944 -117.952212 76 11046ft 145kts
08-Oct-18 21:23 34.644741 -117.903502 69 11047ft 143kts
08-Oct-18 21:24 34.652848 -117.856163 69 11050ft 143kts
08-Oct-18 21:25 34.659989 -117.808423 75 11049ft 145kts
08-Oct-18 21:26 34.664888 -117.760412 66 11042ft 141kts
08-Oct-18 21:27 34.676550 -117.715119 64 11046ft 141kts
08-Oct-18 21:28 34.688227 -117.669710 64 11048ft 141kts
08-Oct-18 21:29 34.699957 -117.623926 65 11047ft 142kts
08-Oct-18 21:30 34.711691 -117.578044 65 11048ft 142kts
08-Oct-18 21:31 34.723471 -117.531921 65 11048ft 142kts
08-Oct-18 21:32 34.735204 -117.485904 65 11050ft 142kts
08-Oct-18 21:33 34.746947 -117.439768 65 11052ft 143kts
08-Oct-18 21:34 34.758319 -117.395005 65 11053ft 143kts
08-Oct-18 21:35 34.770054 -117.348745 65 11052ft 143kts
08-Oct-18 21:36 34.781828 -117.302234 65 11053ft 143kts
08-Oct-18 21:37 34.793561 -117.255813 65 11053ft 143kts
08-Oct-18 21:38 34.805279 -117.209357 65 11053ft 143kts
08-Oct-18 21:39 34.816449 -117.165008 65 11053ft 143kts
08-Oct-18 21:40 34.828133 -117.118532 65 11053ft 144kts
08-Oct-18 21:41 34.839821 -117.071946 65 11053ft 143kts
08-Oct-18 21:42 34.851512 -117.025274 65 11054ft 143kts
08-Oct-18 21:43 34.863148 -116.978738 65 11054ft 143kts
08-Oct-18 21:44 34.874806 -116.932026 65 11054ft 143kts
08-Oct-18 21:45 34.886407 -116.885459 65 11054ft 143kts
08-Oct-18 21:46 34.897996 -116.838868 65 11053ft 143kts
08-Oct-18 21:47 34.909606 -116.792115 65 11054ft 143kts
08-Oct-18 21:48 34.921162 -116.745508 65 11055ft 143kts
08-Oct-18 21:49 34.932741 -116.698733 65 11056ft 143kts
08-Oct-18 21:50 34.944144 -116.652270 67 11055ft 144kts
08-Oct-18 21:51 34.954914 -116.605209 66 11055ft 144kts
08-Oct-18 21:52 34.967432 -116.559092 52 11053ft 139kts
08-Oct-18 21:53 34.987907 -116.519233 52 11054ft 139kts
08-Oct-18 21:54 35.006904 -116.477923 53 11055ft 140kts
08-Oct-18 21:55 35.025562 -116.436097 54 11055ft 140kts
08-Oct-18 21:56 35.044089 -116.394344 54 11055ft 140kts
08-Oct-18 21:57 35.062667 -116.352416 54 11055ft 140kts
08-Oct-18 21:58 35.081180 -116.310602 54 11055ft 140kts
08-Oct-18 21:59 35.099657 -116.268761 54 11056ft 140kts
08-Oct-18 22:00 35.118192 -116.226760 54 11056ft 140kts
08-Oct-18 22:01 35.136656 -116.184871 54 11056ft 140kts
08-Oct-18 22:02 35.155104 -116.142969 54 11056ft 140kts
08-Oct-18 22:03 35.173605 -116.100891 54 11056ft 140kts
08-Oct-18 22:04 35.192030 -116.058936 54 11056ft 140kts
08-Oct-18 22:05 35.210440 -116.016965 54 11055ft 140kts
08-Oct-18 22:06 35.228903 -115.974817 54 11056ft 140kts
08-Oct-18 22:07 35.247288 -115.932795 54 11057ft 140kts
08-Oct-18 22:08 35.265719 -115.890624 54 11057ft 140kts
08-Oct-18 22:09 35.284091 -115.848518 54 11057ft 140kts
08-Oct-18 22:10 35.302443 -115.806415 54 11057ft 140kts
08-Oct-18 22:11 35.324444 -115.768161 40 11055ft 135kts
08-Oct-18 22:12 35.350171 -115.734295 40 11056ft 135kts
08-Oct-18 22:13 35.375855 -115.700169 41 11056ft 136kts
08-Oct-18 22:14 35.401604 -115.665822 41 11055ft 137kts
08-Oct-18 22:15 35.427501 -115.631240 42 11055ft 138kts
08-Oct-18 22:16 35.453614 -115.596318 42 10967ft 143kts
08-Oct-18 22:17 35.480920 -115.559699 42 10877ft 136kts
08-Oct-18 22:18 35.505784 -115.526441 42 11029ft 135kts
08-Oct-18 22:19 35.531581 -115.491861 42 11025ft 138kts
08-Oct-18 22:20 35.557466 -115.457128 42 11024ft 138kts
08-Oct-18 22:21 35.583431 -115.422258 42 11030ft 137kts
08-Oct-18 22:22 35.609343 -115.387410 42 11014ft 138kts
08-Oct-18 22:23 35.635273 -115.352522 42 11013ft 138kts
08-Oct-18 22:24 35.661310 -115.317440 42 11013ft 138kts
08-Oct-18 22:25 35.695280 -115.292847 23 10477ft 148kts
08-Oct-18 22:26 35.734070 -115.270848 22 9788ft 158kts
08-Oct-18 22:27 35.774803 -115.248032 22 9098ft 162kts
08-Oct-18 22:28 35.813509 -115.226298 22 9038ft 147kts
08-Oct-18 22:29 35.850635 -115.205813 22 9039ft 146kts
08-Oct-18 22:30 35.888416 -115.185495 22 9045ft 150kts
08-Oct-18 22:31 35.927153 -115.164730 22 9045ft 152kts
08-Oct-18 22:32 35.968576 -115.142655 22 8380ft 166kts
08-Oct-18 22:33 36.011283 -115.120052 22 7696ft 167kts
08-Oct-18 22:34 36.054364 -115.097551 22 7007ft 168kts
08-Oct-18 22:35 36.097762 -115.075445 22 6304ft 160kts
08-Oct-18 22:36 36.135559 -115.056446 11 5414ft 133kts
08-Oct-18 22:37 36.156606 -115.086673 268 3957ft 125kts
08-Oct-18 22:38 36.142242 -115.119507 236 3008ft 85kts
08-Oct-18 22:39 36.129701 -115.138786 215 2900ft 74kts
08-Oct-18 22:40 36.111414 -115.149208 204 2448ft 65kts
08-Oct-18 22:41 36.095304 -115.158738 207 2127ft 54kts
08-Oct-18 22:42 36.088980 -115.162338 239 2118ft 8kts
08-Oct-18 22:43 36.089586 -115.163981 295 2118ft 0kts
08-Oct-18 22:44 36.087640 -115.165627 222 2118ft 7kts
08-Oct-18 22:45 36.086937 -115.166622 209 2118ft 0kts

Navigation Log

Ident Type
Flight plan parsing failed, navigation log unavailable